sensor_id;sensor_type;location;lat;lon;timestamp;P1;durP1;ratioP1;P2;durP2;ratioP2
18290;SDS011;9271;48.590;8.866;2022-08-26T00:00:15;5.13;;;4.67;;
18290;SDS011;9271;48.590;8.866;2022-08-26T00:02:42;5.10;;;4.70;;
18290;SDS011;9271;48.590;8.866;2022-08-26T00:05:09;4.80;;;4.40;;
18290;SDS011;9271;48.590;8.866;2022-08-26T00:07:36;5.00;;;4.60;;
18290;SDS011;9271;48.590;8.866;2022-08-26T00:10:03;6.03;;;4.90;;
18290;SDS011;9271;48.590;8.866;2022-08-26T00:12:30;7.97;;;4.80;;
18290;SDS011;9271;48.590;8.866;2022-08-26T00:14:58;5.63;;;4.73;;
18290;SDS011;9271;48.590;8.866;2022-08-26T00:17:25;4.70;;;4.40;;
18290;SDS011;9271;48.590;8.866;2022-08-26T00:19:52;7.30;;;4.90;;
18290;SDS011;9271;48.590;8.866;2022-08-26T00:22:19;6.10;;;4.73;;
18290;SDS011;9271;48.590;8.866;2022-08-26T00:24:46;4.53;;;4.23;;
18290;SDS011;9271;48.590;8.866;2022-08-26T00:27:12;4.97;;;4.57;;
18290;SDS011;9271;48.590;8.866;2022-08-26T00:29:39;5.60;;;4.37;;
18290;SDS011;9271;48.590;8.866;2022-08-26T00:32:07;5.23;;;4.10;;
18290;SDS011;9271;48.590;8.866;2022-08-26T00:34:34;4.50;;;4.20;;
18290;SDS011;9271;48.590;8.866;2022-08-26T00:37:01;8.20;;;4.83;;
18290;SDS011;9271;48.590;8.866;2022-08-26T00:39:28;4.63;;;4.23;;
18290;SDS011;9271;48.590;8.866;2022-08-26T00:41:55;5.27;;;4.73;;
18290;SDS011;9271;48.590;8.866;2022-08-26T00:44:22;5.13;;;4.57;;
18290;SDS011;9271;48.590;8.866;2022-08-26T00:46:50;5.00;;;4.50;;
18290;SDS011;9271;48.590;8.866;2022-08-26T00:49:22;5.40;;;4.50;;
18290;SDS011;9271;48.590;8.866;2022-08-26T00:51:53;4.83;;;4.43;;
18290;SDS011;9271;48.590;8.866;2022-08-26T00:54:22;5.10;;;4.60;;
18290;SDS011;9271;48.590;8.866;2022-08-26T00:56:53;4.87;;;4.47;;
18290;SDS011;9271;48.590;8.866;2022-08-26T00:59:23;5.07;;;4.67;;
18290;SDS011;9271;48.590;8.866;2022-08-26T01:01:50;5.10;;;4.70;;
18290;SDS011;9271;48.590;8.866;2022-08-26T01:04:19;5.57;;;4.80;;
18290;SDS011;9271;48.590;8.866;2022-08-26T01:06:49;5.60;;;4.80;;
18290;SDS011;9271;48.590;8.866;2022-08-26T01:09:17;5.40;;;4.90;;
18290;SDS011;9271;48.590;8.866;2022-08-26T01:11:45;5.73;;;5.33;;
18290;SDS011;9271;48.590;8.866;2022-08-26T01:14:13;5.17;;;4.73;;
18290;SDS011;9271;48.590;8.866;2022-08-26T01:16:42;5.37;;;4.90;;
18290;SDS011;9271;48.590;8.866;2022-08-26T01:19:11;5.27;;;4.77;;
18290;SDS011;9271;48.590;8.866;2022-08-26T01:21:45;5.33;;;4.93;;
18290;SDS011;9271;48.590;8.866;2022-08-26T01:24:20;5.53;;;4.93;;
18290;SDS011;9271;48.590;8.866;2022-08-26T01:26:49;5.80;;;5.30;;
18290;SDS011;9271;48.590;8.866;2022-08-26T01:29:17;5.37;;;4.87;;
18290;SDS011;9271;48.590;8.866;2022-08-26T01:31:46;5.60;;;5.10;;
18290;SDS011;9271;48.590;8.866;2022-08-26T01:34:16;5.83;;;5.23;;
18290;SDS011;9271;48.590;8.866;2022-08-26T01:36:45;5.10;;;4.80;;
18290;SDS011;9271;48.590;8.866;2022-08-26T01:39:12;6.17;;;5.50;;
18290;SDS011;9271;48.590;8.866;2022-08-26T01:41:40;5.43;;;5.03;;
18290;SDS011;9271;48.590;8.866;2022-08-26T01:44:09;5.30;;;4.90;;
18290;SDS011;9271;48.590;8.866;2022-08-26T01:46:40;5.50;;;5.00;;
18290;SDS011;9271;48.590;8.866;2022-08-26T01:49:08;5.23;;;4.73;;
18290;SDS011;9271;48.590;8.866;2022-08-26T01:51:35;5.90;;;5.30;;
18290;SDS011;9271;48.590;8.866;2022-08-26T01:54:05;5.70;;;5.23;;
18290;SDS011;9271;48.590;8.866;2022-08-26T01:56:33;5.50;;;5.00;;
18290;SDS011;9271;48.590;8.866;2022-08-26T01:59:03;6.03;;;5.20;;
18290;SDS011;9271;48.590;8.866;2022-08-26T02:01:31;5.03;;;4.73;;
18290;SDS011;9271;48.590;8.866;2022-08-26T02:04:00;5.57;;;5.07;;
18290;SDS011;9271;48.590;8.866;2022-08-26T02:06:33;5.60;;;5.20;;
18290;SDS011;9271;48.590;8.866;2022-08-26T02:09:02;5.50;;;5.03;;
18290;SDS011;9271;48.590;8.866;2022-08-26T02:11:30;5.90;;;5.30;;
18290;SDS011;9271;48.590;8.866;2022-08-26T02:13:58;5.70;;;5.30;;
18290;SDS011;9271;48.590;8.866;2022-08-26T02:16:30;5.37;;;4.87;;
18290;SDS011;9271;48.590;8.866;2022-08-26T02:19:01;5.50;;;4.97;;
18290;SDS011;9271;48.590;8.866;2022-08-26T02:21:29;5.00;;;4.70;;
18290;SDS011;9271;48.590;8.866;2022-08-26T02:23:58;5.77;;;5.27;;
18290;SDS011;9271;48.590;8.866;2022-08-26T02:26:34;5.53;;;5.13;;
18290;SDS011;9271;48.590;8.866;2022-08-26T02:29:01;5.20;;;4.70;;
18290;SDS011;9271;48.590;8.866;2022-08-26T02:31:32;5.30;;;4.90;;
18290;SDS011;9271;48.590;8.866;2022-08-26T02:34:05;5.30;;;4.90;;
18290;SDS011;9271;48.590;8.866;2022-08-26T02:36:33;5.70;;;5.20;;
18290;SDS011;9271;48.590;8.866;2022-08-26T02:38:59;5.80;;;5.23;;
18290;SDS011;9271;48.590;8.866;2022-08-26T02:41:26;6.20;;;5.70;;
18290;SDS011;9271;48.590;8.866;2022-08-26T02:43:53;5.67;;;5.17;;
18290;SDS011;9271;48.590;8.866;2022-08-26T02:46:19;5.37;;;4.93;;
18290;SDS011;9271;48.590;8.866;2022-08-26T02:48:48;5.73;;;5.30;;
18290;SDS011;9271;48.590;8.866;2022-08-26T02:51:15;5.57;;;5.07;;
18290;SDS011;9271;48.590;8.866;2022-08-26T02:53:41;5.70;;;5.27;;
18290;SDS011;9271;48.590;8.866;2022-08-26T02:56:08;5.83;;;5.33;;
18290;SDS011;9271;48.590;8.866;2022-08-26T02:58:35;5.47;;;5.07;;
18290;SDS011;9271;48.590;8.866;2022-08-26T03:01:02;5.70;;;5.20;;
18290;SDS011;9271;48.590;8.866;2022-08-26T03:03:29;5.73;;;5.17;;
18290;SDS011;9271;48.590;8.866;2022-08-26T03:05:57;5.73;;;5.23;;
18290;SDS011;9271;48.590;8.866;2022-08-26T03:08:24;5.70;;;5.20;;
18290;SDS011;9271;48.590;8.866;2022-08-26T03:10:51;5.60;;;5.20;;
18290;SDS011;9271;48.590;8.866;2022-08-26T03:13:18;5.77;;;5.27;;
18290;SDS011;9271;48.590;8.866;2022-08-26T03:15:45;6.43;;;5.83;;
18290;SDS011;9271;48.590;8.866;2022-08-26T03:18:11;5.47;;;4.97;;
18290;SDS011;9271;48.590;8.866;2022-08-26T03:20:38;6.00;;;5.40;;
18290;SDS011;9271;48.590;8.866;2022-08-26T03:23:06;5.50;;;5.10;;
18290;SDS011;9271;48.590;8.866;2022-08-26T03:25:33;5.20;;;4.80;;
18290;SDS011;9271;48.590;8.866;2022-08-26T03:27:59;5.70;;;5.20;;
18290;SDS011;9271;48.590;8.866;2022-08-26T03:30:26;6.63;;;4.83;;
18290;SDS011;9271;48.590;8.866;2022-08-26T03:33:04;5.93;;;5.40;;
18290;SDS011;9271;48.590;8.866;2022-08-26T03:35:32;7.10;;;5.30;;
18290;SDS011;9271;48.590;8.866;2022-08-26T03:37:59;5.60;;;5.10;;
18290;SDS011;9271;48.590;8.866;2022-08-26T03:40:28;5.23;;;4.77;;
18290;SDS011;9271;48.590;8.866;2022-08-26T03:42:57;5.70;;;5.20;;
18290;SDS011;9271;48.590;8.866;2022-08-26T03:45:24;6.03;;;5.53;;
18290;SDS011;9271;48.590;8.866;2022-08-26T03:47:52;6.90;;;5.73;;
18290;SDS011;9271;48.590;8.866;2022-08-26T03:50:19;5.73;;;5.33;;
18290;SDS011;9271;48.590;8.866;2022-08-26T03:52:47;5.77;;;5.33;;
18290;SDS011;9271;48.590;8.866;2022-08-26T03:55:15;6.20;;;5.40;;
18290;SDS011;9271;48.590;8.866;2022-08-26T03:57:45;6.43;;;5.83;;
18290;SDS011;9271;48.590;8.866;2022-08-26T04:00:13;6.67;;;6.00;;
18290;SDS011;9271;48.590;8.866;2022-08-26T04:02:40;6.50;;;5.97;;
18290;SDS011;9271;48.590;8.866;2022-08-26T04:05:09;6.43;;;5.83;;
18290;SDS011;9271;48.590;8.866;2022-08-26T04:07:37;7.33;;;6.00;;
18290;SDS011;9271;48.590;8.866;2022-08-26T04:10:04;6.77;;;6.00;;
18290;SDS011;9271;48.590;8.866;2022-08-26T04:12:31;6.50;;;5.93;;
18290;SDS011;9271;48.590;8.866;2022-08-26T04:14:59;9.70;;;6.33;;
18290;SDS011;9271;48.590;8.866;2022-08-26T04:17:26;6.80;;;6.20;;
18290;SDS011;9271;48.590;8.866;2022-08-26T04:19:53;6.70;;;6.10;;
18290;SDS011;9271;48.590;8.866;2022-08-26T04:22:20;7.10;;;6.50;;
18290;SDS011;9271;48.590;8.866;2022-08-26T04:24:47;6.70;;;6.20;;
18290;SDS011;9271;48.590;8.866;2022-08-26T04:27:13;6.63;;;6.03;;
18290;SDS011;9271;48.590;8.866;2022-08-26T04:29:40;7.67;;;6.40;;
18290;SDS011;9271;48.590;8.866;2022-08-26T04:32:09;6.70;;;6.00;;
18290;SDS011;9271;48.590;8.866;2022-08-26T04:34:35;6.97;;;6.37;;
18290;SDS011;9271;48.590;8.866;2022-08-26T04:37:03;7.80;;;6.17;;
18290;SDS011;9271;48.590;8.866;2022-08-26T04:39:30;7.10;;;6.10;;
18290;SDS011;9271;48.590;8.866;2022-08-26T04:41:58;8.27;;;6.50;;
18290;SDS011;9271;48.590;8.866;2022-08-26T04:44:25;6.30;;;5.80;;
18290;SDS011;9271;48.590;8.866;2022-08-26T04:46:54;8.07;;;6.23;;
18290;SDS011;9271;48.590;8.866;2022-08-26T04:49:23;7.80;;;5.90;;
18290;SDS011;9271;48.590;8.866;2022-08-26T04:51:49;6.50;;;5.87;;
18290;SDS011;9271;48.590;8.866;2022-08-26T04:54:16;8.00;;;5.90;;
18290;SDS011;9271;48.590;8.866;2022-08-26T04:56:44;8.37;;;6.07;;
18290;SDS011;9271;48.590;8.866;2022-08-26T04:59:13;6.93;;;6.10;;
18290;SDS011;9271;48.590;8.866;2022-08-26T05:01:41;6.37;;;5.77;;
18290;SDS011;9271;48.590;8.866;2022-08-26T05:04:09;8.40;;;5.87;;
18290;SDS011;9271;48.590;8.866;2022-08-26T05:06:37;6.83;;;6.20;;
18290;SDS011;9271;48.590;8.866;2022-08-26T05:09:04;7.43;;;6.17;;
18290;SDS011;9271;48.590;8.866;2022-08-26T05:11:31;10.07;;;6.17;;
18290;SDS011;9271;48.590;8.866;2022-08-26T05:13:58;12.50;;;6.43;;
18290;SDS011;9271;48.590;8.866;2022-08-26T05:16:24;15.53;;;6.37;;
18290;SDS011;9271;48.590;8.866;2022-08-26T05:18:51;11.20;;;6.50;;
18290;SDS011;9271;48.590;8.866;2022-08-26T05:21:20;6.50;;;6.00;;
18290;SDS011;9271;48.590;8.866;2022-08-26T05:23:50;7.23;;;6.20;;
18290;SDS011;9271;48.590;8.866;2022-08-26T05:26:19;6.50;;;5.97;;
18290;SDS011;9271;48.590;8.866;2022-08-26T05:28:47;8.60;;;6.27;;
18290;SDS011;9271;48.590;8.866;2022-08-26T05:31:14;7.03;;;5.77;;
18290;SDS011;9271;48.590;8.866;2022-08-26T05:33:43;6.43;;;5.83;;
18290;SDS011;9271;48.590;8.866;2022-08-26T05:36:11;6.40;;;5.87;;
18290;SDS011;9271;48.590;8.866;2022-08-26T05:38:39;7.23;;;6.30;;
18290;SDS011;9271;48.590;8.866;2022-08-26T05:41:13;9.93;;;6.20;;
18290;SDS011;9271;48.590;8.866;2022-08-26T05:43:41;7.00;;;6.30;;
18290;SDS011;9271;48.590;8.866;2022-08-26T05:46:08;6.70;;;6.20;;
18290;SDS011;9271;48.590;8.866;2022-08-26T05:48:35;8.30;;;6.43;;
18290;SDS011;9271;48.590;8.866;2022-08-26T05:51:03;6.90;;;5.70;;
18290;SDS011;9271;48.590;8.866;2022-08-26T05:53:32;10.17;;;6.60;;
18290;SDS011;9271;48.590;8.866;2022-08-26T05:56:00;6.63;;;5.93;;
18290;SDS011;9271;48.590;8.866;2022-08-26T05:58:31;8.60;;;5.83;;
18290;SDS011;9271;48.590;8.866;2022-08-26T06:01:00;7.00;;;6.37;;
18290;SDS011;9271;48.590;8.866;2022-08-26T06:03:29;7.30;;;6.60;;
18290;SDS011;9271;48.590;8.866;2022-08-26T06:05:58;7.00;;;6.20;;
18290;SDS011;9271;48.590;8.866;2022-08-26T06:08:29;10.07;;;6.37;;
18290;SDS011;9271;48.590;8.866;2022-08-26T06:11:04;7.23;;;6.40;;
18290;SDS011;9271;48.590;8.866;2022-08-26T06:13:36;6.73;;;6.03;;
18290;SDS011;9271;48.590;8.866;2022-08-26T06:16:04;6.67;;;6.07;;
18290;SDS011;9271;48.590;8.866;2022-08-26T06:18:33;9.87;;;6.60;;
18290;SDS011;9271;48.590;8.866;2022-08-26T06:21:10;9.67;;;5.83;;
18290;SDS011;9271;48.590;8.866;2022-08-26T06:23:38;9.63;;;6.23;;
18290;SDS011;9271;48.590;8.866;2022-08-26T06:26:23;7.20;;;6.47;;
18290;SDS011;9271;48.590;8.866;2022-08-26T06:28:51;8.47;;;6.27;;
18290;SDS011;9271;48.590;8.866;2022-08-26T06:31:19;9.87;;;6.83;;
18290;SDS011;9271;48.590;8.866;2022-08-26T06:33:46;12.70;;;6.50;;
18290;SDS011;9271;48.590;8.866;2022-08-26T06:36:16;11.03;;;6.47;;
18290;SDS011;9271;48.590;8.866;2022-08-26T06:38:44;10.57;;;6.60;;
18290;SDS011;9271;48.590;8.866;2022-08-26T06:41:11;9.57;;;6.57;;
18290;SDS011;9271;48.590;8.866;2022-08-26T06:43:38;13.07;;;6.10;;
18290;SDS011;9271;48.590;8.866;2022-08-26T06:46:07;7.83;;;5.93;;
18290;SDS011;9271;48.590;8.866;2022-08-26T06:48:36;9.37;;;5.93;;
18290;SDS011;9271;48.590;8.866;2022-08-26T06:51:04;11.30;;;6.43;;
18290;SDS011;9271;48.590;8.866;2022-08-26T06:53:34;8.27;;;6.07;;
18290;SDS011;9271;48.590;8.866;2022-08-26T06:56:02;8.87;;;6.60;;
18290;SDS011;9271;48.590;8.866;2022-08-26T06:58:30;11.27;;;5.60;;
18290;SDS011;9271;48.590;8.866;2022-08-26T07:00:57;6.37;;;5.70;;
18290;SDS011;9271;48.590;8.866;2022-08-26T07:03:25;7.10;;;5.87;;
18290;SDS011;9271;48.590;8.866;2022-08-26T07:05:52;5.77;;;5.27;;
18290;SDS011;9271;48.590;8.866;2022-08-26T07:08:20;9.40;;;5.73;;
18290;SDS011;9271;48.590;8.866;2022-08-26T07:10:47;8.13;;;5.73;;
18290;SDS011;9271;48.590;8.866;2022-08-26T07:13:15;8.63;;;5.37;;
18290;SDS011;9271;48.590;8.866;2022-08-26T07:15:42;9.70;;;5.60;;
18290;SDS011;9271;48.590;8.866;2022-08-26T07:18:08;8.63;;;5.90;;
18290;SDS011;9271;48.590;8.866;2022-08-26T07:20:37;10.10;;;5.60;;
18290;SDS011;9271;48.590;8.866;2022-08-26T07:23:05;6.10;;;4.97;;
18290;SDS011;9271;48.590;8.866;2022-08-26T07:25:33;6.30;;;5.20;;
18290;SDS011;9271;48.590;8.866;2022-08-26T07:28:00;6.43;;;5.28;;
18290;SDS011;9271;48.590;8.866;2022-08-26T07:30:26;6.10;;;4.90;;
18290;SDS011;9271;48.590;8.866;2022-08-26T07:32:54;8.90;;;5.60;;
18290;SDS011;9271;48.590;8.866;2022-08-26T07:35:22;8.45;;;5.32;;
18290;SDS011;9271;48.590;8.866;2022-08-26T07:37:51;8.20;;;5.30;;
18290;SDS011;9271;48.590;8.866;2022-08-26T07:40:18;7.10;;;5.43;;
18290;SDS011;9271;48.590;8.866;2022-08-26T07:42:45;13.50;;;4.85;;
18290;SDS011;9271;48.590;8.866;2022-08-26T07:45:12;26.98;;;7.10;;
18290;SDS011;9271;48.590;8.866;2022-08-26T07:47:39;21.10;;;5.95;;
18290;SDS011;9271;48.590;8.866;2022-08-26T07:50:06;9.55;;;5.00;;
18290;SDS011;9271;48.590;8.866;2022-08-26T07:52:33;5.15;;;4.65;;
18290;SDS011;9271;48.590;8.866;2022-08-26T07:55:03;5.97;;;4.30;;
18290;SDS011;9271;48.590;8.866;2022-08-26T07:57:31;9.52;;;4.25;;
18290;SDS011;9271;48.590;8.866;2022-08-26T07:59:58;7.90;;;3.90;;
18290;SDS011;9271;48.590;8.866;2022-08-26T08:02:26;10.02;;;4.72;;
18290;SDS011;9271;48.590;8.866;2022-08-26T08:04:54;7.25;;;4.55;;
18290;SDS011;9271;48.590;8.866;2022-08-26T08:07:21;8.02;;;4.53;;
18290;SDS011;9271;48.590;8.866;2022-08-26T08:09:48;7.10;;;3.88;;
18290;SDS011;9271;48.590;8.866;2022-08-26T08:12:17;8.75;;;4.35;;
18290;SDS011;9271;48.590;8.866;2022-08-26T08:14:44;11.23;;;4.57;;
18290;SDS011;9271;48.590;8.866;2022-08-26T08:17:12;7.20;;;4.20;;
18290;SDS011;9271;48.590;8.866;2022-08-26T08:19:39;5.78;;;3.80;;
18290;SDS011;9271;48.590;8.866;2022-08-26T08:22:07;5.72;;;4.15;;
18290;SDS011;9271;48.590;8.866;2022-08-26T08:24:34;7.65;;;3.80;;
18290;SDS011;9271;48.590;8.866;2022-08-26T08:27:00;5.60;;;3.53;;
18290;SDS011;9271;48.590;8.866;2022-08-26T08:29:28;6.30;;;3.67;;
18290;SDS011;9271;48.590;8.866;2022-08-26T08:31:55;3.70;;;3.25;;
18290;SDS011;9271;48.590;8.866;2022-08-26T08:34:22;9.10;;;3.63;;
18290;SDS011;9271;48.590;8.866;2022-08-26T08:36:50;5.40;;;3.70;;
18290;SDS011;9271;48.590;8.866;2022-08-26T08:39:16;6.22;;;3.60;;
18290;SDS011;9271;48.590;8.866;2022-08-26T08:41:47;6.95;;;3.78;;
18290;SDS011;9271;48.590;8.866;2022-08-26T08:44:23;10.70;;;3.58;;
18290;SDS011;9271;48.590;8.866;2022-08-26T08:46:53;8.43;;;3.33;;
18290;SDS011;9271;48.590;8.866;2022-08-26T08:49:23;7.15;;;3.30;;
18290;SDS011;9271;48.590;8.866;2022-08-26T08:51:54;7.20;;;3.42;;
18290;SDS011;9271;48.590;8.866;2022-08-26T08:54:25;5.22;;;3.10;;
18290;SDS011;9271;48.590;8.866;2022-08-26T08:56:55;6.18;;;3.45;;
18290;SDS011;9271;48.590;8.866;2022-08-26T08:59:27;4.97;;;3.10;;
18290;SDS011;9271;48.590;8.866;2022-08-26T09:02:01;7.47;;;4.47;;
18290;SDS011;9271;48.590;8.866;2022-08-26T09:04:54;6.97;;;3.13;;
18290;SDS011;9271;48.590;8.866;2022-08-26T09:07:30;6.22;;;2.90;;
18290;SDS011;9271;48.590;8.866;2022-08-26T09:10:02;6.88;;;3.30;;
18290;SDS011;9271;48.590;8.866;2022-08-26T09:12:38;6.65;;;3.22;;
18290;SDS011;9271;48.590;8.866;2022-08-26T09:15:06;8.23;;;3.42;;
18290;SDS011;9271;48.590;8.866;2022-08-26T09:17:44;8.10;;;3.28;;
18290;SDS011;9271;48.590;8.866;2022-08-26T09:20:18;10.65;;;3.58;;
18290;SDS011;9271;48.590;8.866;2022-08-26T09:22:50;6.07;;;3.25;;
18290;SDS011;9271;48.590;8.866;2022-08-26T09:25:17;9.45;;;3.30;;
18290;SDS011;9271;48.590;8.866;2022-08-26T09:27:45;4.43;;;3.35;;
18290;SDS011;9271;48.590;8.866;2022-08-26T09:30:14;5.93;;;3.25;;
18290;SDS011;9271;48.590;8.866;2022-08-26T09:33:00;8.30;;;3.83;;
18290;SDS011;9271;48.590;8.866;2022-08-26T09:35:30;4.38;;;3.25;;
18290;SDS011;9271;48.590;8.866;2022-08-26T09:37:58;4.47;;;2.95;;
18290;SDS011;9271;48.590;8.866;2022-08-26T09:40:29;5.10;;;3.30;;
18290;SDS011;9271;48.590;8.866;2022-08-26T09:45:44;4.93;;;3.28;;
18290;SDS011;9271;48.590;8.866;2022-08-26T09:48:24;3.40;;;3.10;;
18290;SDS011;9271;48.590;8.866;2022-08-26T09:50:54;3.40;;;3.10;;
18290;SDS011;9271;48.590;8.866;2022-08-26T09:53:24;3.67;;;3.13;;
18290;SDS011;9271;48.590;8.866;2022-08-26T09:58:41;5.70;;;3.20;;
18290;SDS011;9271;48.590;8.866;2022-08-26T10:01:13;4.45;;;3.15;;
18290;SDS011;9271;48.590;8.866;2022-08-26T10:03:42;3.60;;;3.08;;
18290;SDS011;9271;48.590;8.866;2022-08-26T10:06:19;4.75;;;2.95;;
18290;SDS011;9271;48.590;8.866;2022-08-26T10:08:48;6.10;;;3.30;;
18290;SDS011;9271;48.590;8.866;2022-08-26T10:11:18;6.75;;;3.13;;
18290;SDS011;9271;48.590;8.866;2022-08-26T10:13:51;4.32;;;2.83;;
18290;SDS011;9271;48.590;8.866;2022-08-26T10:16:22;5.18;;;3.13;;
18290;SDS011;9271;48.590;8.866;2022-08-26T10:18:55;4.70;;;3.08;;
18290;SDS011;9271;48.590;8.866;2022-08-26T10:21:26;5.63;;;2.97;;
18290;SDS011;9271;48.590;8.866;2022-08-26T10:23:58;4.32;;;3.00;;
18290;SDS011;9271;48.590;8.866;2022-08-26T10:26:29;4.78;;;3.03;;
18290;SDS011;9271;48.590;8.866;2022-08-26T10:29:01;3.75;;;3.08;;
18290;SDS011;9271;48.590;8.866;2022-08-26T10:31:36;4.95;;;3.08;;
18290;SDS011;9271;48.590;8.866;2022-08-26T10:34:06;4.60;;;2.90;;
18290;SDS011;9271;48.590;8.866;2022-08-26T10:36:34;4.03;;;2.80;;
18290;SDS011;9271;48.590;8.866;2022-08-26T10:39:16;6.55;;;3.08;;
18290;SDS011;9271;48.590;8.866;2022-08-26T10:41:48;5.00;;;2.92;;
18290;SDS011;9271;48.590;8.866;2022-08-26T10:44:17;5.45;;;3.08;;
18290;SDS011;9271;48.590;8.866;2022-08-26T10:46:46;4.32;;;3.08;;
18290;SDS011;9271;48.590;8.866;2022-08-26T10:49:18;3.97;;;2.80;;
18290;SDS011;9271;48.590;8.866;2022-08-26T10:51:47;7.60;;;3.05;;
18290;SDS011;9271;48.590;8.866;2022-08-26T10:54:20;5.35;;;2.67;;
18290;SDS011;9271;48.590;8.866;2022-08-26T10:56:51;4.20;;;2.63;;
18290;SDS011;9271;48.590;8.866;2022-08-26T10:59:27;5.15;;;2.80;;
18290;SDS011;9271;48.590;8.866;2022-08-26T11:02:04;4.72;;;3.10;;
18290;SDS011;9271;48.590;8.866;2022-08-26T11:04:41;4.38;;;3.28;;
18290;SDS011;9271;48.590;8.866;2022-08-26T11:10:02;4.55;;;3.20;;
18290;SDS011;9271;48.590;8.866;2022-08-26T11:12:51;7.22;;;3.75;;
18290;SDS011;9271;48.590;8.866;2022-08-26T11:15:55;7.55;;;4.00;;
18290;SDS011;9271;48.590;8.866;2022-08-26T11:18:40;7.75;;;3.75;;
18290;SDS011;9271;48.590;8.866;2022-08-26T11:30:46;8.95;;;4.40;;
18290;SDS011;9271;48.590;8.866;2022-08-26T11:36:31;8.13;;;4.63;;
18290;SDS011;9271;48.590;8.866;2022-08-26T11:39:16;8.43;;;4.65;;
18290;SDS011;9271;48.590;8.866;2022-08-26T11:41:48;16.00;;;4.88;;
18290;SDS011;9271;48.590;8.866;2022-08-26T11:44:16;7.55;;;4.80;;
18290;SDS011;9271;48.590;8.866;2022-08-26T11:46:50;6.57;;;4.32;;
18290;SDS011;9271;48.590;8.866;2022-08-26T11:49:18;12.57;;;4.50;;
18290;SDS011;9271;48.590;8.866;2022-08-26T11:51:45;12.30;;;5.00;;
18290;SDS011;9271;48.590;8.866;2022-08-26T11:54:12;9.70;;;5.10;;
18290;SDS011;9271;48.590;8.866;2022-08-26T11:56:41;7.87;;;5.00;;
18290;SDS011;9271;48.590;8.866;2022-08-26T11:59:12;11.63;;;4.57;;
18290;SDS011;9271;48.590;8.866;2022-08-26T12:01:44;9.30;;;5.00;;
18290;SDS011;9271;48.590;8.866;2022-08-26T12:04:16;8.27;;;4.50;;
18290;SDS011;9271;48.590;8.866;2022-08-26T12:06:52;6.57;;;4.50;;
18290;SDS011;9271;48.590;8.866;2022-08-26T12:09:20;6.30;;;4.03;;
18290;SDS011;9271;48.590;8.866;2022-08-26T12:11:48;7.17;;;4.27;;
18290;SDS011;9271;48.590;8.866;2022-08-26T12:14:19;6.50;;;3.70;;
18290;SDS011;9271;48.590;8.866;2022-08-26T12:16:49;8.47;;;3.73;;
18290;SDS011;9271;48.590;8.866;2022-08-26T12:19:21;5.53;;;3.83;;
18290;SDS011;9271;48.590;8.866;2022-08-26T12:21:50;6.53;;;3.97;;
18290;SDS011;9271;48.590;8.866;2022-08-26T12:24:20;6.73;;;4.30;;
18290;SDS011;9271;48.590;8.866;2022-08-26T12:26:47;6.10;;;4.35;;
18290;SDS011;9271;48.590;8.866;2022-08-26T12:29:23;4.88;;;4.32;;
18290;SDS011;9271;48.590;8.866;2022-08-26T12:31:53;6.30;;;4.32;;
18290;SDS011;9271;48.590;8.866;2022-08-26T12:34:32;5.95;;;4.35;;
18290;SDS011;9271;48.590;8.866;2022-08-26T12:36:59;5.43;;;4.63;;
18290;SDS011;9271;48.590;8.866;2022-08-26T12:39:27;4.45;;;4.03;;
18290;SDS011;9271;48.590;8.866;2022-08-26T12:41:57;6.55;;;4.45;;
18290;SDS011;9271;48.590;8.866;2022-08-26T12:44:39;6.68;;;4.35;;
18290;SDS011;9271;48.590;8.866;2022-08-26T12:47:10;4.70;;;4.30;;
18290;SDS011;9271;48.590;8.866;2022-08-26T12:49:42;5.22;;;4.72;;
18290;SDS011;9271;48.590;8.866;2022-08-26T12:52:19;6.78;;;4.30;;
18290;SDS011;9271;48.590;8.866;2022-08-26T12:54:54;5.43;;;4.50;;
18290;SDS011;9271;48.590;8.866;2022-08-26T12:57:25;5.85;;;4.45;;
18290;SDS011;9271;48.590;8.866;2022-08-26T12:59:56;6.53;;;4.70;;
18290;SDS011;9271;48.590;8.866;2022-08-26T13:02:56;8.30;;;4.65;;
18290;SDS011;9271;48.590;8.866;2022-08-26T13:05:25;8.18;;;4.40;;
18290;SDS011;9271;48.590;8.866;2022-08-26T13:08:12;9.60;;;5.05;;
18290;SDS011;9271;48.590;8.866;2022-08-26T13:10:41;8.82;;;4.40;;
18290;SDS011;9271;48.590;8.866;2022-08-26T13:13:10;5.68;;;4.50;;
18290;SDS011;9271;48.590;8.866;2022-08-26T13:15:38;7.45;;;4.53;;
18290;SDS011;9271;48.590;8.866;2022-08-26T13:18:05;10.48;;;4.80;;
18290;SDS011;9271;48.590;8.866;2022-08-26T13:20:32;6.85;;;4.63;;
18290;SDS011;9271;48.590;8.866;2022-08-26T13:22:59;7.75;;;4.55;;
18290;SDS011;9271;48.590;8.866;2022-08-26T13:25:27;4.88;;;4.45;;
18290;SDS011;9271;48.590;8.866;2022-08-26T13:27:53;5.53;;;4.40;;
18290;SDS011;9271;48.590;8.866;2022-08-26T13:30:20;6.05;;;4.35;;
18290;SDS011;9271;48.590;8.866;2022-08-26T13:32:48;6.55;;;4.30;;
18290;SDS011;9271;48.590;8.866;2022-08-26T13:35:20;6.72;;;4.15;;
18290;SDS011;9271;48.590;8.866;2022-08-26T13:37:46;5.22;;;4.10;;
18290;SDS011;9271;48.590;8.866;2022-08-26T13:40:14;7.13;;;4.43;;
18290;SDS011;9271;48.590;8.866;2022-08-26T13:42:40;5.82;;;4.55;;
18290;SDS011;9271;48.590;8.866;2022-08-26T13:45:07;8.52;;;4.57;;
18290;SDS011;9271;48.590;8.866;2022-08-26T13:47:35;12.52;;;4.82;;
18290;SDS011;9271;48.590;8.866;2022-08-26T13:50:03;9.90;;;4.70;;
18290;SDS011;9271;48.590;8.866;2022-08-26T13:52:31;8.80;;;4.40;;
18290;SDS011;9271;48.590;8.866;2022-08-26T13:54:57;8.90;;;4.60;;
18290;SDS011;9271;48.590;8.866;2022-08-26T13:57:25;8.05;;;3.97;;
18290;SDS011;9271;48.590;8.866;2022-08-26T13:59:52;9.00;;;4.85;;
18290;SDS011;9271;48.590;8.866;2022-08-26T14:02:20;8.90;;;4.40;;
18290;SDS011;9271;48.590;8.866;2022-08-26T14:04:47;5.68;;;4.10;;
18290;SDS011;9271;48.590;8.866;2022-08-26T14:07:15;6.80;;;4.53;;
18290;SDS011;9271;48.590;8.866;2022-08-26T14:09:42;8.70;;;4.57;;
18290;SDS011;9271;48.590;8.866;2022-08-26T14:12:09;5.53;;;4.30;;
18290;SDS011;9271;48.590;8.866;2022-08-26T14:14:35;6.32;;;4.60;;
18290;SDS011;9271;48.590;8.866;2022-08-26T14:17:02;5.47;;;4.00;;
18290;SDS011;9271;48.590;8.866;2022-08-26T14:19:29;6.78;;;4.40;;
18290;SDS011;9271;48.590;8.866;2022-08-26T14:21:57;4.82;;;4.43;;
18290;SDS011;9271;48.590;8.866;2022-08-26T14:24:27;6.38;;;4.32;;
18290;SDS011;9271;48.590;8.866;2022-08-26T14:26:53;3.85;;;3.55;;
18290;SDS011;9271;48.590;8.866;2022-08-26T14:29:20;6.15;;;3.95;;
18290;SDS011;9271;48.590;8.866;2022-08-26T14:31:47;4.90;;;3.90;;
18290;SDS011;9271;48.590;8.866;2022-08-26T14:34:13;5.13;;;3.97;;
18290;SDS011;9271;48.590;8.866;2022-08-26T14:36:40;4.55;;;4.10;;
18290;SDS011;9271;48.590;8.866;2022-08-26T14:39:08;6.03;;;4.43;;
18290;SDS011;9271;48.590;8.866;2022-08-26T14:41:39;6.28;;;4.43;;
18290;SDS011;9271;48.590;8.866;2022-08-26T14:44:10;6.15;;;4.25;;
18290;SDS011;9271;48.590;8.866;2022-08-26T14:46:39;5.50;;;4.20;;
18290;SDS011;9271;48.590;8.866;2022-08-26T14:49:08;5.38;;;4.20;;
18290;SDS011;9271;48.590;8.866;2022-08-26T14:51:34;10.60;;;4.32;;
18290;SDS011;9271;48.590;8.866;2022-08-26T14:54:01;4.28;;;3.88;;
18290;SDS011;9271;48.590;8.866;2022-08-26T14:56:39;5.25;;;4.10;;
18290;SDS011;9271;48.590;8.866;2022-08-26T14:59:11;5.25;;;4.00;;
18290;SDS011;9271;48.590;8.866;2022-08-26T15:01:38;7.70;;;4.13;;
18290;SDS011;9271;48.590;8.866;2022-08-26T15:04:05;6.28;;;4.00;;
18290;SDS011;9271;48.590;8.866;2022-08-26T15:06:32;4.50;;;4.10;;
18290;SDS011;9271;48.590;8.866;2022-08-26T15:08:59;4.63;;;4.22;;
18290;SDS011;9271;48.590;8.866;2022-08-26T15:11:26;8.48;;;4.72;;
18290;SDS011;9271;48.590;8.866;2022-08-26T15:13:54;4.85;;;4.03;;
18290;SDS011;9271;48.590;8.866;2022-08-26T15:16:21;6.53;;;3.63;;
18290;SDS011;9271;48.590;8.866;2022-08-26T15:18:49;6.03;;;4.13;;
18290;SDS011;9271;48.590;8.866;2022-08-26T15:21:16;4.40;;;4.00;;
18290;SDS011;9271;48.590;8.866;2022-08-26T15:23:44;4.88;;;3.83;;
18290;SDS011;9271;48.590;8.866;2022-08-26T15:26:11;4.25;;;3.85;;
18290;SDS011;9271;48.590;8.866;2022-08-26T15:28:39;4.57;;;3.50;;
18290;SDS011;9271;48.590;8.866;2022-08-26T15:31:07;7.22;;;3.30;;
18290;SDS011;9271;48.590;8.866;2022-08-26T15:33:34;6.88;;;3.47;;